Time;durP1;ratioP1;P1;durP2;ratioP2;P2;SDS_P1;SDS_P2;PMS_P1;PMS_P2;Temp;Humidity;BMP_temperature;BMP_pressure;BME280_temperature;BME280_humidity;BME280_pressure;Samples;Min_cycle;Max_cycle;Signal;HPM_P1;HPM_P2
2024/01/19 00:00:45;;;;;;;;;;;;;;;21.56;26.91;96628.84;5016987;28;1914;-73
2024/01/19 00:03:11;;;;;;;;;;;;;;;21.21;27.80;96623.56;5000778;28;1226;-73
2024/01/19 00:05:36;;;;;;;;;;;;;;;21.36;27.66;96622.94;4939184;28;2257701;-73
2024/01/19 00:08:02;;;;;;;;;;;;;;;21.75;27.10;96621.81;5017884;28;782;-73
2024/01/19 00:10:30;;;;;;;;;;;;;;;21.79;27.02;96613.94;5018061;28;796;-73
2024/01/19 00:12:56;;;;;;;;;;;;;;;21.70;26.66;96619.63;5017487;28;959;-73
2024/01/19 00:15:21;;;;;;;;;;;;;;;21.08;27.64;96620.91;5001555;28;791;-72
2024/01/19 00:17:47;;;;;;;;;;;;;;;21.04;28.07;96625.19;5019207;28;740;-73
2024/01/19 00:20:12;;;;;;;;;;;;;;;21.49;27.26;96627.13;5018993;28;1985;-72
2024/01/19 00:22:38;;;;;;;;;;;;;;;21.63;27.05;96613.53;5018781;28;711;-73
2024/01/19 00:25:04;;;;;;;;;;;;;;;21.90;26.82;96615.44;5018900;28;795;-73
2024/01/19 00:27:29;;;;;;;;;;;;;;;21.88;26.98;96618.00;5017349;28;1132;-73
2024/01/19 00:29:55;;;;;;;;;;;;;;;21.44;27.27;96618.50;5018305;28;735;-73
2024/01/19 00:32:20;;;;;;;;;;;;;;;21.05;27.71;96615.44;5018551;28;754;-73
2024/01/19 00:34:46;;;;;;;;;;;;;;;21.12;27.72;96615.09;4996785;28;1187;-73
2024/01/19 00:37:11;;;;;;;;;;;;;;;21.67;26.99;96609.28;4980666;28;982;-73
2024/01/19 00:39:37;;;;;;;;;;;;;;;21.85;27.08;96616.88;4996605;28;1987;-73
2024/01/19 00:42:03;;;;;;;;;;;;;;;21.84;27.01;96613.28;4996809;28;878;-73
2024/01/19 00:44:28;;;;;;;;;;;;;;;21.90;26.64;96616.22;4980562;28;983;-74
2024/01/19 00:46:54;;;;;;;;;;;;;;;22.02;26.69;96611.59;4980293;28;771;-73
2024/01/19 00:49:19;;;;;;;;;;;;;;;21.51;27.34;96612.50;4980478;28;871;-73
2024/01/19 00:51:45;;;;;;;;;;;;;;;20.93;28.11;96627.69;4979937;28;716;-73
2024/01/19 00:54:10;;;;;;;;;;;;;;;20.94;28.24;96627.25;4964141;28;1223;-73
2024/01/19 00:56:36;;;;;;;;;;;;;;;21.34;27.50;96623.38;4980331;28;850;-73
2024/01/19 00:59:01;;;;;;;;;;;;;;;21.62;27.16;96626.91;4980159;28;1095;-73
2024/01/19 01:01:27;;;;;;;;;;;;;;;21.85;27.02;96623.34;4979735;28;1907;-73
2024/01/19 01:03:55;;;;;;;;;;;;;;;21.32;27.52;96623.09;4980211;28;869;-73
2024/01/19 01:06:20;;;;;;;;;;;;;;;20.94;27.88;96581.22;5012491;28;1269;-73
2024/01/19 01:08:46;;;;;;;;;;;;;;;21.14;28.07;96629.56;5016987;28;727;-73
2024/01/19 01:11:11;;;;;;;;;;;;;;;21.75;27.24;96621.03;5016651;28;934;-73
2024/01/19 01:13:37;;;;;;;;;;;;;;;21.73;27.12;96623.56;5016609;28;1424;-73
2024/01/19 01:16:03;;;;;;;;;;;;;;;21.82;27.10;96618.66;5017608;28;1225;-73
2024/01/19 01:18:28;;;;;;;;;;;;;;;21.67;27.06;96619.81;5017922;28;768;-73
2024/01/19 01:20:54;;;;;;;;;;;;;;;21.82;26.90;96615.81;4979603;28;1988;-73
2024/01/19 01:23:19;;;;;;;;;;;;;;;21.83;26.96;96620.22;4995943;28;831;-74
2024/01/19 01:25:45;;;;;;;;;;;;;;;21.55;27.16;96624.41;4979837;28;778;-73
2024/01/19 01:28:10;;;;;;;;;;;;;;;21.27;27.53;96627.31;4979551;28;708;-73
2024/01/19 01:30:37;;;;;;;;;;;;;;;21.21;27.58;96629.22;4947306;28;1181;-72
2024/01/19 01:33:03;;;;;;;;;;;;;;;21.50;27.63;96633.56;4995575;28;704;-73
2024/01/19 01:35:28;;;;;;;;;;;;;;;21.95;26.94;96628.94;4979510;28;931;-73
2024/01/19 01:37:54;;;;;;;;;;;;;;;21.63;27.07;96630.53;4995535;28;966;-73
2024/01/19 01:40:19;;;;;;;;;;;;;;;21.35;27.60;96627.81;4978720;28;1989;-73
2024/01/19 01:42:45;;;;;;;;;;;;;;;20.88;28.53;96628.34;4995042;28;1026;-73
2024/01/19 01:45:10;;;;;;;;;;;;;;;21.43;27.75;96629.03;4979104;28;1066;-72
2024/01/19 01:47:36;;;;;;;;;;;;;;;21.55;27.34;96625.22;4995338;28;935;-73
2024/01/19 01:50:02;;;;;;;;;;;;;;;21.84;27.04;96624.59;4979222;28;812;-73
2024/01/19 01:52:27;;;;;;;;;;;;;;;21.66;27.09;96624.72;5007842;28;928;-73
2024/01/19 01:54:53;;;;;;;;;;;;;;;21.65;27.21;96623.13;5017848;28;812;-73
2024/01/19 01:57:21;;;;;;;;;;;;;;;21.97;26.64;96615.13;5034530;28;1176;-73
2024/01/19 01:59:47;;;;;;;;;;;;;;;21.56;27.19;96631.66;5018479;28;1977;-73
2024/01/19 02:02:12;;;;;;;;;;;;;;;21.07;27.83;96630.66;5018300;28;800;-73
2024/01/19 02:04:38;;;;;;;;;;;;;;;21.35;27.87;96638.31;5001639;28;1189;-72
2024/01/19 02:07:03;;;;;;;;;;;;;;;21.88;26.86;96629.31;5017680;28;752;-73
2024/01/19 02:09:29;;;;;;;;;;;;;;;22.06;26.83;96620.69;5017956;28;1162;-73
2024/01/19 02:11:54;;;;;;;;;;;;;;;21.51;27.34;96630.25;5034087;28;747;-73
2024/01/19 02:14:20;;;;;;;;;;;;;;;20.97;27.95;96636.81;5032383;28;805;-73
2024/01/19 02:16:45;;;;;;;;;;;;;;;21.08;28.24;96643.53;5016962;28;821;-73
2024/01/19 02:19:11;;;;;;;;;;;;;;;21.44;27.86;96641.13;4998936;28;767;-73
2024/01/19 02:21:36;;;;;;;;;;;;;;;21.70;27.41;96639.44;5015400;28;1976;-73
2024/01/19 02:24:03;;;;;;;;;;;;;;;22.02;26.71;96645.56;4981919;28;1273;-73
2024/01/19 02:26:29;;;;;;;;;;;;;;;21.75;26.85;96650.13;5016735;28;728;-73
2024/01/19 02:28:54;;;;;;;;;;;;;;;21.28;27.70;96651.50;5015549;28;994;-73
2024/01/19 02:31:20;;;;;;;;;;;;;;;20.97;28.09;96648.91;4998234;28;935;-73
2024/01/19 02:33:46;;;;;;;;;;;;;;;21.08;28.36;96648.41;5015168;28;1211;-73
2024/01/19 02:36:11;;;;;;;;;;;;;;;21.42;27.70;96649.31;5015218;28;789;-73
2024/01/19 02:38:37;;;;;;;;;;;;;;;21.69;27.38;96651.25;5015249;28;783;-73
2024/01/19 02:41:02;;;;;;;;;;;;;;;21.66;27.03;96653.00;5016322;28;1906;-73
2024/01/19 02:43:28;;;;;;;;;;;;;;;21.74;27.24;96651.38;5015307;28;1126;-73
2024/01/19 02:45:53;;;;;;;;;;;;;;;21.67;27.27;96654.56;5014912;28;775;-73
2024/01/19 02:48:19;;;;;;;;;;;;;;;21.46;27.27;96650.72;5013761;28;994;-73
2024/01/19 02:50:44;;;;;;;;;;;;;;;21.30;27.49;96648.25;4997438;28;811;-73
2024/01/19 02:53:10;;;;;;;;;;;;;;;21.41;27.50;96654.19;4997561;28;1305;-73
2024/01/19 02:55:35;;;;;;;;;;;;;;;21.60;27.36;96654.91;4997663;28;802;-73
2024/01/19 02:58:01;;;;;;;;;;;;;;;21.78;27.28;96654.84;5013979;28;781;-73
2024/01/19 03:00:27;;;;;;;;;;;;;;;21.79;27.13;96659.22;4997450;28;1969;-72
2024/01/19 03:02:52;;;;;;;;;;;;;;;21.22;27.80;96659.06;4997287;28;994;-73
2024/01/19 03:05:18;;;;;;;;;;;;;;;20.97;28.12;96654.56;5004873;28;1276;-73
2024/01/19 03:07:43;;;;;;;;;;;;;;;21.36;27.61;96651.22;5016784;28;765;-73
2024/01/19 03:10:09;;;;;;;;;;;;;;;21.68;27.41;96656.13;5033620;28;1126;-73
2024/01/19 03:12:34;;;;;;;;;;;;;;;21.94;27.07;96655.72;5000721;28;1257;-73
2024/01/19 03:15:00;;;;;;;;;;;;;;;21.85;27.08;96662.19;5016762;28;806;-73
2024/01/19 03:17:27;;;;;;;;;;;;;;;21.74;27.24;96659.88;5000594;28;1466;-73
2024/01/19 03:19:52;;;;;;;;;;;;;;;21.53;27.56;96649.59;5020229;28;1983;-73
2024/01/19 03:22:18;;;;;;;;;;;;;;;21.29;27.63;96657.94;5015862;28;683;-73
2024/01/19 03:24:43;;;;;;;;;;;;;;;20.72;28.56;96661.31;5015979;28;912;-72
2024/01/19 03:27:09;;;;;;;;;;;;;;;21.37;27.93;96664.09;5016843;28;938;-74
2024/01/19 03:29:34;;;;;;;;;;;;;;;21.75;27.13;96663.50;5033478;28;829;-73
2024/01/19 03:32:00;;;;;;;;;;;;;;;21.97;26.98;96671.75;5017089;28;780;-73
2024/01/19 03:34:25;;;;;;;;;;;;;;;21.87;27.06;96664.56;5016788;28;1632;-73
2024/01/19 03:36:51;;;;;;;;;;;;;;;21.35;27.74;96667.41;5016566;28;739;-73
2024/01/19 03:39:17;;;;;;;;;;;;;;;21.14;27.89;96674.00;5016893;28;824;-72
2024/01/19 03:41:43;;;;;;;;;;;;;;;21.12;28.27;96666.00;5000632;28;1973;-74
2024/01/19 03:44:08;;;;;;;;;;;;;;;21.69;27.42;96674.69;4993467;28;892;-72
2024/01/19 03:46:34;;;;;;;;;;;;;;;21.75;27.20;96672.78;4993920;28;869;-72
2024/01/19 03:49:04;;;;;;;;;;;;;;;21.94;27.06;96684.03;4961838;28;1162;-73
2024/01/19 03:51:29;;;;;;;;;;;;;;;21.85;26.93;96679.97;4977614;28;863;-73
2024/01/19 03:53:55;;;;;;;;;;;;;;;21.89;26.91;96684.69;4961420;28;1109;-73
2024/01/19 03:56:20;;;;;;;;;;;;;;;21.88;27.19;96685.94;4994011;28;724;-73
2024/01/19 03:58:46;;;;;;;;;;;;;;;21.46;27.44;96683.91;4993741;28;1424;-73
2024/01/19 04:01:11;;;;;;;;;;;;;;;21.24;27.83;96684.88;4945205;28;1977;-73
2024/01/19 04:03:37;;;;;;;;;;;;;;;21.27;27.76;96695.22;4977752;28;950;-73
2024/01/19 04:06:02;;;;;;;;;;;;;;;21.64;27.38;96694.38;4980924;28;1145;-73
2024/01/19 04:08:28;;;;;;;;;;;;;;;21.78;27.06;96694.47;4980933;28;1159;-73
2024/01/19 04:10:54;;;;;;;;;;;;;;;21.96;27.10;96701.31;4964676;28;867;-73
2024/01/19 04:13:19;;;;;;;;;;;;;;;21.45;27.75;96700.09;4997254;28;764;-72
2024/01/19 04:15:45;;;;;;;;;;;;;;;21.09;28.11;96712.22;5013540;28;889;-73
2024/01/19 04:18:10;;;;;;;;;;;;;;;21.22;27.99;96720.53;5001011;28;795;-73
2024/01/19 04:20:36;;;;;;;;;;;;;;;21.56;27.78;96710.91;4983955;28;1883;-74
2024/01/19 04:23:02;;;;;;;;;;;;;;;21.82;27.24;96711.31;5017665;28;748;-73
2024/01/19 04:25:28;;;;;;;;;;;;;;;21.89;27.10;96727.16;5017639;28;803;-73
2024/01/19 04:27:53;;;;;;;;;;;;;;;21.79;27.05;96710.19;5018725;28;739;-73
2024/01/19 04:30:19;;;;;;;;;;;;;;;21.61;27.37;96718.75;5018670;28;810;-73
2024/01/19 04:32:44;;;;;;;;;;;;;;;21.35;27.67;96717.53;5000989;28;750;-73
2024/01/19 04:35:10;;;;;;;;;;;;;;;21.07;27.96;96728.88;5018556;28;755;-73
2024/01/19 04:37:35;;;;;;;;;;;;;;;21.46;27.74;96717.84;5017649;28;849;-73
2024/01/19 04:40:01;;;;;;;;;;;;;;;21.71;27.53;96722.31;5000584;28;1902;-73
2024/01/19 04:42:26;;;;;;;;;;;;;;;21.62;27.37;96726.00;5001104;28;1125;-73
2024/01/19 04:44:52;;;;;;;;;;;;;;;21.82;27.04;96729.06;5018940;28;1000;-73
2024/01/19 04:47:17;;;;;;;;;;;;;;;21.77;27.00;96732.56;5017416;28;908;-73
2024/01/19 04:49:43;;;;;;;;;;;;;;;21.22;27.93;96726.97;5017397;28;974;-73
2024/01/19 04:52:08;;;;;;;;;;;;;;;21.18;27.74;96726.34;5016906;28;1111;-73
2024/01/19 04:54:34;;;;;;;;;;;;;;;21.13;28.26;96732.63;5001135;28;1004;-72
2024/01/19 04:56:59;;;;;;;;;;;;;;;21.69;27.38;96731.31;5000516;28;937;-73
2024/01/19 04:59:25;;;;;;;;;;;;;;;22.02;26.74;96736.22;5035434;28;1194;-73
2024/01/19 05:01:50;;;;;;;;;;;;;;;22.07;26.73;96738.41;5002666;28;2019;-73
2024/01/19 05:04:16;;;;;;;;;;;;;;;22.01;26.69;96734.66;5035518;28;1094;-73
2024/01/19 05:06:42;;;;;;;;;;;;;;;21.49;27.82;96739.53;5054673;28;997;-73
2024/01/19 05:09:07;;;;;;;;;;;;;;;21.08;28.11;96744.56;5039011;28;1067;-73
2024/01/19 05:11:33;;;;;;;;;;;;;;;20.95;28.41;96735.47;5038931;28;1002;-72
2024/01/19 05:13:58;;;;;;;;;;;;;;;21.40;27.74;96748.03;5038571;28;997;-73
2024/01/19 05:16:24;;;;;;;;;;;;;;;21.64;27.42;96751.75;5037472;28;1034;-73
2024/01/19 05:18:49;;;;;;;;;;;;;;;21.92;27.29;96754.53;5038877;28;1018;-73
2024/01/19 05:21:15;;;;;;;;;;;;;;;21.75;27.54;96757.72;4995443;28;1914;-73
2024/01/19 05:23:40;;;;;;;;;;;;;;;21.76;27.27;96758.50;4979628;28;971;-73
2024/01/19 05:26:08;;;;;;;;;;;;;;;21.88;26.94;96762.41;4979542;28;851;-73
2024/01/19 05:28:36;;;;;;;;;;;;;;;21.54;27.78;96765.16;4996017;28;1006;-73
2024/01/19 05:31:02;;;;;;;;;;;;;;;21.28;27.83;96769.56;4948731;28;976;-73
2024/01/19 05:33:27;;;;;;;;;;;;;;;21.26;27.97;96772.88;4976522;28;766;-73
2024/01/19 05:35:53;;;;;;;;;;;;;;;21.59;27.63;96775.03;4960133;28;896;-72
2024/01/19 05:38:18;;;;;;;;;;;;;;;21.89;27.49;96773.25;4976529;28;941;-73
2024/01/19 05:40:44;;;;;;;;;;;;;;;21.81;27.15;96789.81;4976211;28;1977;-73
2024/01/19 05:43:09;;;;;;;;;;;;;;;21.25;28.00;96788.28;4976263;28;1162;-73
2024/01/19 05:45:35;;;;;;;;;;;;;;;21.22;27.94;96792.03;4959936;28;1011;-72
2024/01/19 05:48:00;;;;;;;;;;;;;;;21.26;27.94;96801.16;4959811;28;1146;-72
2024/01/19 05:50:26;;;;;;;;;;;;;;;21.80;27.30;96793.88;4959712;28;948;-72
2024/01/19 05:52:51;;;;;;;;;;;;;;;21.85;27.27;96790.41;4975969;28;945;-72
2024/01/19 05:55:17;;;;;;;;;;;;;;;21.82;27.42;96797.03;4960219;28;986;-72
2024/01/19 05:57:42;;;;;;;;;;;;;;;21.67;27.22;96790.47;4963989;28;1218;-72
2024/01/19 06:00:08;;;;;;;;;;;;;;;21.31;27.77;96796.94;5015847;28;1983;-72
2024/01/19 06:02:37;;;;;;;;;;;;;;;21.15;28.02;96795.19;5016112;28;899;-72
2024/01/19 06:05:03;;;;;;;;;;;;;;;21.33;28.05;96800.84;5014773;28;1212;-73
2024/01/19 06:07:30;;;;;;;;;;;;;;;21.70;27.75;96800.81;5016017;28;864;-73
2024/01/19 06:09:55;;;;;;;;;;;;;;;21.81;27.46;96794.66;5016804;28;811;-72
2024/01/19 06:12:21;;;;;;;;;;;;;;;21.97;27.19;96802.03;5017147;28;883;-72
2024/01/19 06:14:47;;;;;;;;;;;;;;;21.49;27.84;96808.22;5016501;28;975;-72
2024/01/19 06:17:14;;;;;;;;;;;;;;;21.28;28.12;96809.94;4998105;28;1022;-73
2024/01/19 06:19:42;;;;;;;;;;;;;;;21.21;28.06;96815.94;5015348;28;808;-72
2024/01/19 06:22:08;;;;;;;;;;;;;;;21.48;27.90;96818.00;4999048;28;1898;-72
2024/01/19 06:24:36;;;;;;;;;;;;;;;21.58;27.92;96827.25;5015853;28;1457;-73
2024/01/19 06:27:03;;;;;;;;;;;;;;;21.81;27.22;96829.44;5016399;28;1202;-72
2024/01/19 06:29:28;;;;;;;;;;;;;;;21.88;27.35;96836.03;5016365;28;1233;-72
2024/01/19 06:31:54;;;;;;;;;;;;;;;21.62;27.70;96833.56;4998912;28;1257;-72
2024/01/19 06:34:19;;;;;;;;;;;;;;;21.32;28.02;96843.78;5015143;28;1017;-73
2024/01/19 06:36:45;;;;;;;;;;;;;;;21.09;28.38;96842.31;5015542;28;934;-72
2024/01/19 06:39:13;;;;;;;;;;;;;;;21.60;27.97;96847.38;5016300;28;1043;-72
2024/01/19 06:41:45;;;;;;;;;;;;;;;21.51;27.75;96847.41;5015371;28;1984;-73
2024/01/19 06:44:11;;;;;;;;;;;;;;;21.55;27.75;96856.50;5015480;28;930;-72
2024/01/19 06:46:37;;;;;;;;;;;;;;;21.80;27.35;96853.34;5016410;28;966;-72
2024/01/19 06:49:02;;;;;;;;;;;;;;;21.58;27.56;96856.34;5015265;28;908;-72
2024/01/19 06:51:28;;;;;;;;;;;;;;;21.31;28.04;96859.97;5036928;28;1332;-73
2024/01/19 06:53:56;;;;;;;;;;;;;;;21.22;28.30;96856.31;5037458;28;939;-72
2024/01/19 06:56:22;;;;;;;;;;;;;;;21.60;27.98;96855.88;5036911;28;1183;-72
2024/01/19 06:58:48;;;;;;;;;;;;;;;21.74;27.66;96857.28;5053715;28;1090;-73
2024/01/19 07:01:13;;;;;;;;;;;;;;;21.72;27.45;96856.97;5053296;28;1906;-73
2024/01/19 07:03:39;;;;;;;;;;;;;;;21.79;27.48;96857.44;5036707;28;987;-72
2024/01/19 07:06:04;;;;;;;;;;;;;;;21.40;28.11;96859.19;5053711;28;1311;-72
2024/01/19 07:08:30;;;;;;;;;;;;;;;21.28;28.25;96855.22;5053600;28;977;-72
2024/01/19 07:10:56;;;;;;;;;;;;;;;21.11;28.52;96856.00;5036937;28;1017;-72
2024/01/19 07:13:22;;;;;;;;;;;;;;;21.57;28.04;96854.00;5053641;28;941;-72
2024/01/19 07:15:47;;;;;;;;;;;;;;;21.74;27.57;96863.72;5036639;28;1021;-73
2024/01/19 07:18:13;;;;;;;;;;;;;;;21.71;27.56;96859.03;5053619;28;981;-73
2024/01/19 07:20:38;;;;;;;;;;;;;;;21.79;27.52;96848.94;5053325;28;1910;-72
2024/01/19 07:23:04;;;;;;;;;;;;;;;21.69;27.63;96849.41;5036829;28;1047;-72
2024/01/19 07:25:30;;;;;;;;;;;;;;;21.37;28.05;96850.84;5036847;28;1063;-72
2024/01/19 07:27:55;;;;;;;;;;;;;;;21.28;28.03;96857.25;5033131;28;1044;-74
2024/01/19 07:30:21;;;;;;;;;;;;;;;21.44;28.10;96844.88;4998393;28;1063;-72
2024/01/19 07:32:46;;;;;;;;;;;;;;;21.90;27.49;96853.31;5015960;28;908;-72
2024/01/19 07:35:12;;;;;;;;;;;;;;;21.77;27.72;96851.47;4997946;28;1233;-73
2024/01/19 07:37:38;;;;;;;;;;;;;;;21.81;27.38;96856.94;5015486;28;1254;-72
2024/01/19 07:40:03;;;;;;;;;;;;;;;21.76;27.57;96847.06;5017918;28;1978;-72
2024/01/19 07:42:29;;;;;;;;;;;;;;;21.45;28.09;96857.75;5018295;28;1165;-72
2024/01/19 07:44:54;;;;;;;;;;;;;;;21.37;28.27;96856.50;5018426;28;1264;-72
2024/01/19 07:47:20;;;;;;;;;;;;;;;21.17;28.28;96857.72;5019116;28;1337;-72
2024/01/19 07:49:45;;;;;;;;;;;;;;;21.21;28.44;96861.19;5019654;28;1285;-72
2024/01/19 07:52:11;;;;;;;;;;;;;;;21.77;27.46;96868.47;5046181;28;1333;-72
2024/01/19 07:54:36;;;;;;;;;;;;;;;21.59;27.92;96877.72;5030838;28;1396;-74
2024/01/19 07:57:02;;;;;;;;;;;;;;;21.83;27.65;96879.94;5045373;28;1203;-72
2024/01/19 07:59:27;;;;;;;;;;;;;;;21.66;27.75;96885.16;5046670;28;1292;-73
2024/01/19 08:01:53;;;;;;;;;;;;;;;21.44;28.22;96885.28;5046634;28;1910;-73
2024/01/19 08:04:19;;;;;;;;;;;;;;;21.40;28.30;96895.16;5045048;28;1264;-73
2024/01/19 08:06:44;;;;;;;;;;;;;;;21.06;28.66;96900.59;5030434;28;1268;-74
2024/01/19 08:09:13;;;;;;;;;;;;;;;21.29;28.50;96893.56;5011999;28;1412;-72
2024/01/19 08:11:39;;;;;;;;;;;;;;;21.95;27.26;96898.00;5029227;28;1336;-73
2024/01/19 08:14:04;;;;;;;;;;;;;;;21.74;27.68;96894.88;4971415;28;1322;-73
2024/01/19 08:16:30;;;;;;;;;;;;;;;21.39;28.28;96902.88;4985803;28;1291;-73
2024/01/19 08:18:56;;;;;;;;;;;;;;;21.03;28.93;96906.41;4986103;28;1262;-73
2024/01/19 08:21:22;;;;;;;;;;;;;;;21.53;28.00;96909.97;4972024;28;1985;-73
2024/01/19 08:23:47;;;;;;;;;;;;;;;21.85;27.55;96909.34;4963888;28;1330;-74
2024/01/19 08:26:13;;;;;;;;;;;;;;;22.00;27.08;96914.34;4977380;28;1345;-73
2024/01/19 08:28:39;;;;;;;;;;;;;;;21.61;27.97;96910.47;4977282;28;1404;-73
2024/01/19 08:31:04;;;;;;;;;;;;;;;21.15;28.63;96925.31;4977147;28;1346;-74
2024/01/19 08:33:30;;;;;;;;;;;;;;;21.15;28.57;96911.16;4977024;28;1286;-73
2024/01/19 08:35:56;;;;;;;;;;;;;;;21.46;28.01;96918.78;4976916;28;1385;-73
2024/01/19 08:38:22;;;;;;;;;;;;;;;21.82;27.83;96910.28;4977203;28;1232;-72
2024/01/19 08:40:47;;;;;;;;;;;;;;;21.93;27.55;96909.03;4977340;28;1906;-73
2024/01/19 08:43:13;;;;;;;;;;;;;;;21.98;27.26;96916.88;4977048;28;908;-73
2024/01/19 08:45:39;;;;;;;;;;;;;;;21.97;27.24;96904.00;5002088;28;1020;-73
2024/01/19 08:48:05;;;;;;;;;;;;;;;21.53;28.03;96905.09;5018458;28;968;-73
2024/01/19 08:50:30;;;;;;;;;;;;;;;21.28;28.17;96894.81;5017161;28;970;-73
2024/01/19 08:52:56;;;;;;;;;;;;;;;21.20;28.40;96901.28;5018189;28;983;-73
2024/01/19 08:55:21;;;;;;;;;;;;;;;21.72;27.62;96903.06;5017391;28;900;-72
2024/01/19 08:57:47;;;;;;;;;;;;;;;21.75;27.52;96893.59;5018061;28;899;-73
2024/01/19 09:00:12;;;;;;;;;;;;;;;21.80;27.63;96907.13;5011394;28;1902;-72
2024/01/19 09:02:38;;;;;;;;;;;;;;;21.98;27.33;96889.34;5017276;28;1750;-73
2024/01/19 09:05:03;;;;;;;;;;;;;;;21.52;28.06;96888.59;5016357;28;1174;-73
2024/01/19 09:07:29;;;;;;;;;;;;;;;21.08;28.67;96905.78;4995468;28;1206;-73
2024/01/19 09:09:54;;;;;;;;;;;;;;;21.12;28.79;96909.25;4995788;28;1339;-73
2024/01/19 09:12:20;;;;;;;;;;;;;;;21.47;28.37;96906.19;4948978;29;1374;-73
2024/01/19 09:14:46;;;;;;;;;;;;;;;21.73;27.66;96906.69;4930688;29;1415;-73
2024/01/19 09:17:12;;;;;;;;;;;;;;;21.82;27.38;96907.47;4948408;29;1224;-72
2024/01/19 09:19:37;;;;;;;;;;;;;;;21.65;27.65;96919.56;4947141;29;1288;-73
2024/01/19 09:22:03;;;;;;;;;;;;;;;21.14;28.55;96923.72;4931044;29;1970;-72
2024/01/19 09:24:28;;;;;;;;;;;;;;;21.19;28.63;96911.81;4932363;29;1261;-73
2024/01/19 09:26:54;;;;;;;;;;;;;;;21.78;27.52;96904.00;4930526;29;1241;-73
2024/01/19 09:29:20;;;;;;;;;;;;;;;21.81;27.49;96907.91;4931593;29;1314;-73
2024/01/19 09:31:46;;;;;;;;;;;;;;;21.85;27.60;96905.72;4948079;29;1294;-73
2024/01/19 09:34:12;;;;;;;;;;;;;;;21.77;27.70;96904.47;4930237;29;1220;-73
2024/01/19 09:36:38;;;;;;;;;;;;;;;21.85;27.35;96906.50;4928699;29;1251;-73
2024/01/19 09:39:03;;;;;;;;;;;;;;;21.60;27.69;96904.00;4966726;28;960;-73
2024/01/19 09:41:29;;;;;;;;;;;;;;;21.28;28.56;96902.53;4959832;28;1918;-73
2024/01/19 09:43:55;;;;;;;;;;;;;;;21.22;28.55;96905.19;4992408;28;959;-73
2024/01/19 09:46:28;;;;;;;;;;;;;;;21.49;28.34;96895.19;4996497;28;904;-73
2024/01/19 09:49:00;;;;;;;;;;;;;;;21.63;27.92;96897.41;4996220;28;939;-73
2024/01/19 09:51:28;;;;;;;;;;;;;;;21.83;27.69;96894.88;4997889;28;926;-72
2024/01/19 09:53:53;;;;;;;;;;;;;;;21.54;28.06;96900.22;4996725;28;943;-73
2024/01/19 09:56:19;;;;;;;;;;;;;;;21.12;28.59;96909.25;4996255;28;979;-73
2024/01/19 09:58:44;;;;;;;;;;;;;;;20.94;28.84;96912.06;4980353;28;902;-73
2024/01/19 10:01:10;;;;;;;;;;;;;;;21.26;28.60;96903.00;4996145;28;1985;-74
2024/01/19 10:03:36;;;;;;;;;;;;;;;21.78;27.80;96909.66;4996155;28;947;-73
2024/01/19 10:06:03;;;;;;;;;;;;;;;21.89;27.73;96914.84;4995998;28;1224;-73
2024/01/19 10:08:28;;;;;;;;;;;;;;;21.50;28.24;96916.56;4996331;28;872;-73
2024/01/19 10:10:54;;;;;;;;;;;;;;;21.02;28.69;96916.16;4995950;28;930;-73
2024/01/19 10:13:19;;;;;;;;;;;;;;;21.03;28.87;96923.38;4979700;28;993;-73
2024/01/19 10:15:45;;;;;;;;;;;;;;;21.45;28.32;96912.34;4996002;28;1131;-73
2024/01/19 10:18:11;;;;;;;;;;;;;;;21.80;27.55;96915.63;4997033;28;1023;-73
2024/01/19 10:20:38;;;;;;;;;;;;;;;21.78;27.91;96915.31;4994504;28;1898;-73
2024/01/19 10:23:24;;;;;;;;;;;;;;;21.81;27.66;96907.91;4995053;28;1005;-72
2024/01/19 10:25:50;;;;;;;;;;;;;;;21.32;28.61;96909.63;4978193;28;1413;-73
2024/01/19 10:28:31;;;;;;;;;;;;;;;21.18;28.52;96913.03;4978688;28;1238;-73
2024/01/19 10:31:12;;;;;;;;;;;;;;;20.99;28.89;96905.78;4994617;28;1012;-73
2024/01/19 10:33:37;;;;;;;;;;;;;;;21.44;28.17;96907.13;4978432;28;1259;-73
2024/01/19 10:36:03;;;;;;;;;;;;;;;21.59;28.07;96908.88;4994703;28;1099;-73
2024/01/19 10:38:28;;;;;;;;;;;;;;;21.82;27.62;96907.47;4994602;28;820;-73
2024/01/19 10:40:54;;;;;;;;;;;;;;;21.87;27.25;96913.75;4994535;28;1986;-73
2024/01/19 10:43:23;;;;;;;;;;;;;;;21.31;28.48;96905.25;4978145;28;1261;-73
2024/01/19 10:45:48;;;;;;;;;;;;;;;21.12;28.34;96909.25;4994756;28;943;-73
2024/01/19 10:48:14;;;;;;;;;;;;;;;21.11;28.69;96907.69;4994635;28;787;-73
2024/01/19 10:50:39;;;;;;;;;;;;;;;21.46;28.21;96911.06;4994683;28;807;-73
2024/01/19 10:53:10;;;;;;;;;;;;;;;21.81;27.65;96920.06;4995598;28;807;-73
2024/01/19 10:55:36;;;;;;;;;;;;;;;21.97;27.27;96921.00;4995501;28;719;-73
2024/01/19 10:58:04;;;;;;;;;;;;;;;21.75;27.58;96916.25;4995517;28;1443;-73
2024/01/19 11:00:30;;;;;;;;;;;;;;;21.28;28.18;96908.97;4995633;28;1977;-73
2024/01/19 11:02:56;;;;;;;;;;;;;;;21.09;28.26;96915.88;4995389;28;908;-74
2024/01/19 11:05:22;;;;;;;;;;;;;;;21.39;28.03;96913.41;4995150;28;1179;-73
2024/01/19 11:07:49;;;;;;;;;;;;;;;21.75;27.43;96918.31;4979288;28;1255;-74
2024/01/19 11:10:14;;;;;;;;;;;;;;;21.75;27.17;96916.25;4979158;28;926;-73
2024/01/19 11:12:45;;;;;;;;;;;;;;;22.07;27.00;96903.50;4979199;28;1309;-73
2024/01/19 11:15:10;;;;;;;;;;;;;;;21.72;27.09;96910.78;4998511;28;1195;-73
2024/01/19 11:17:36;;;;;;;;;;;;;;;21.12;28.08;96920.56;4981753;28;1189;-73
2024/01/19 11:20:02;;;;;;;;;;;;;;;21.13;28.14;96921.34;4981899;28;1946;-73
2024/01/19 11:22:28;;;;;;;;;;;;;;;21.50;27.48;96914.53;4998336;28;906;-73
2024/01/19 11:24:53;;;;;;;;;;;;;;;21.66;27.22;96907.78;4998485;28;1022;-73
2024/01/19 11:27:28;;;;;;;;;;;;;;;21.73;27.28;96913.13;4998460;28;854;-72
2024/01/19 11:29:55;;;;;;;;;;;;;;;21.90;26.68;96909.97;4978133;28;1067;-73
2024/01/19 11:32:20;;;;;;;;;;;;;;;21.96;26.88;96908.84;4978423;28;853;-73
2024/01/19 11:34:50;;;;;;;;;;;;;;;21.25;27.61;96901.44;4978352;28;903;-72
2024/01/19 11:37:34;;;;;;;;;;;;;;;21.17;27.92;96900.16;4978562;28;968;-73
2024/01/19 11:39:59;;;;;;;;;;;;;;;21.49;27.48;96903.69;4978085;28;1985;-72
2024/01/19 11:42:34;;;;;;;;;;;;;;;21.62;27.31;96901.50;4978822;28;732;-73
2024/01/19 11:44:59;;;;;;;;;;;;;;;21.46;27.41;96893.31;4978094;28;800;-73
2024/01/19 11:47:37;;;;;;;;;;;;;;;21.81;26.83;96903.06;4962380;28;960;-73
2024/01/19 11:50:03;;;;;;;;;;;;;;;21.88;26.80;96906.84;4961957;28;962;-73
2024/01/19 11:52:30;;;;;;;;;;;;;;;21.40;27.38;96895.16;4962195;28;1194;-72
2024/01/19 11:54:56;;;;;;;;;;;;;;;21.13;27.96;96901.56;4961934;28;1243;-73
2024/01/19 11:57:22;;;;;;;;;;;;;;;21.16;28.00;96904.25;4962182;28;1487;-73
2024/01/19 11:59:48;;;;;;;;;;;;;;;21.54;27.10;96911.53;4979448;28;889;-73
2024/01/19 12:02:20;;;;;;;;;;;;;;;21.78;26.82;96912.50;4998713;28;1914;-73
2024/01/19 12:04:46;;;;;;;;;;;;;;;21.88;26.39;96912.50;5001831;28;1171;-73
2024/01/19 12:07:16;;;;;;;;;;;;;;;21.75;27.03;96916.25;5001931;28;900;-74
2024/01/19 12:09:42;;;;;;;;;;;;;;;21.71;26.87;96921.31;5019348;28;703;-73
2024/01/19 12:12:07;;;;;;;;;;;;;;;21.12;27.86;96920.56;4985636;28;1435;-72
2024/01/19 12:14:33;;;;;;;;;;;;;;;21.07;27.90;96912.69;5019199;28;917;-72
2024/01/19 12:16:58;;;;;;;;;;;;;;;21.45;27.16;96908.69;4985462;28;1260;-72
2024/01/19 12:19:24;;;;;;;;;;;;;;;21.72;26.79;96911.56;5019297;28;902;-73
2024/01/19 12:21:50;;;;;;;;;;;;;;;21.58;27.12;96912.97;5001317;28;1898;-72
2024/01/19 12:24:18;;;;;;;;;;;;;;;21.88;26.38;96918.16;4996934;28;1084;-72
2024/01/19 12:26:50;;;;;;;;;;;;;;;21.27;27.40;96918.72;4964479;28;1309;-71
2024/01/19 12:29:31;;;;;;;;;;;;;;;21.17;27.58;96922.78;4964649;28;1249;-72
2024/01/19 12:32:09;;;;;;;;;;;;;;;21.32;27.41;96918.13;4980890;28;743;-71
2024/01/19 12:34:35;;;;;;;;;;;;;;;21.72;26.77;96927.75;4996724;28;903;-71
2024/01/19 12:37:00;;;;;;;;;;;;;;;21.58;27.09;96923.50;4964598;28;1177;-72
2024/01/19 12:39:27;;;;;;;;;;;;;;;21.82;26.87;96929.34;4980650;28;799;-72
2024/01/19 12:42:05;;;;;;;;;;;;;;;21.97;26.52;96926.66;4996785;28;1950;-72
2024/01/19 12:44:31;;;;;;;;;;;;;;;21.26;27.34;96939.00;4980855;28;949;-72
2024/01/19 12:46:59;;;;;;;;;;;;;;;21.07;27.83;96941.75;4980418;28;755;-72
2024/01/19 12:49:24;;;;;;;;;;;;;;;21.33;27.69;96938.72;4964117;28;924;-72
2024/01/19 12:51:50;;;;;;;;;;;;;;;21.68;26.78;96933.56;4980330;28;1359;-71
2024/01/19 12:54:18;;;;;;;;;;;;;;;21.71;26.61;96941.13;4982446;28;815;-72
2024/01/19 12:56:44;;;;;;;;;;;;;;;21.84;26.55;96947.41;5001549;28;720;-72